Weather at Krenzers Airport

Public forecast

Using degrees Fahrenheit for public forecast. Weather courtesy of forecast.io.

Closest aviation weather report (METAR) to Krenzers Airport

Closest report is Greater Rochester International Airport, 15.4 nm (28.5 km) NNW. Retrieved 2020/09/25 03:54 UTC (46 minutes ago):

KROC 250354Z 24006KT 10SM SCT180 16/13 A3000 RMK AO2 SLP160 T01610133

Closest aviation forecast (TAF) to Krenzers Airport

Closest forecast is Greater Rochester International Airport, 15.4 nm (28.5 km) NNW. Retrieved 2020-09-25 00:22 UTC (4 hours ago):

TAF KROC 242320Z 2500/2524 VRB04KT P6SM SCT050 BKN130 FM250400 23004KT P6SM SCT130 BKN250 FM250800 23004KT P6SM SCT250 FM251600 24008KT P6SM SKC